Time;durP1;ratioP1;P1;durP2;ratioP2;P2;SDS_P1;SDS_P2;PMS_P1;PMS_P2;Temp;Humidity;BMP_temperature;BMP_pressure;BME280_temperature;BME280_humidity;BME280_pressure;Samples;Min_cycle;Max_cycle;Signal;HPM_P1;HPM_P2
2024/04/18 00:00:41;;;;;;;;;;;;;;;15.86;46.03;99199.34;5281467;27;1213;-48
2024/04/18 00:03:06;;;;;;;;;;;;;;;15.81;45.33;99198.09;5299093;27;1227;-49
2024/04/18 00:05:32;;;;;;;;;;;;;;;15.75;44.96;99208.31;5307467;27;1243;-50
2024/04/18 00:07:57;;;;;;;;;;;;;;;16.19;45.76;99209.56;5298647;27;1185;-50
2024/04/18 00:10:23;;;;;;;;;;;;;;;16.21;46.43;99199.63;5304086;27;1192;-48
2024/04/18 00:12:48;;;;;;;;;;;;;;;15.96;45.80;99188.69;5298172;27;1829;-46
2024/04/18 00:15:20;;;;;;;;;;;;;;;17.20;46.32;99185.63;5308483;27;1247;-45
2024/04/18 00:17:53;;;;;;;;;;;;;;;16.19;47.51;99195.44;5297378;27;1534;-48
2024/04/18 00:20:22;;;;;;;;;;;;;;;16.05;46.46;99204.75;5292260;27;1213;-47
2024/04/18 00:22:47;;;;;;;;;;;;;;;15.96;45.58;99209.91;5294981;27;1232;-48
2024/04/18 00:25:13;;;;;;;;;;;;;;;15.83;45.47;99220.00;5289643;27;1281;-51
2024/04/18 00:27:50;;;;;;;;;;;;;;;15.79;44.79;99222.13;5291981;27;1504;-48
2024/04/18 00:30:36;;;;;;;;;;;;;;;17.09;46.30;99223.91;5288932;27;1546;-51
2024/04/18 00:33:02;;;;;;;;;;;;;;;16.27;46.59;99199.03;5308188;27;1829;-47
2024/04/18 00:35:37;;;;;;;;;;;;;;;16.00;46.36;99186.59;5296726;27;1165;-49
2024/04/18 00:38:14;;;;;;;;;;;;;;;15.81;45.54;99191.00;5312679;27;1190;-48
2024/04/18 00:40:40;;;;;;;;;;;;;;;15.72;44.94;99198.00;5294552;27;1160;-49
2024/04/18 00:43:20;;;;;;;;;;;;;;;16.72;46.52;99195.66;5314204;27;1025;-49
2024/04/18 00:45:52;;;;;;;;;;;;;;;16.01;46.25;99197.09;5289385;27;1121;-46
2024/04/18 00:48:21;;;;;;;;;;;;;;;15.92;45.62;99195.25;5281154;27;1192;-49
2024/04/18 00:50:47;;;;;;;;;;;;;;;15.76;45.25;99193.25;5303119;27;1268;-50
2024/04/18 00:53:18;;;;;;;;;;;;;;;15.64;45.00;99192.56;5256490;27;1863;-50
2024/04/18 00:55:48;;;;;;;;;;;;;;;16.82;45.77;99204.38;5309394;27;1197;-48
2024/04/18 00:58:14;;;;;;;;;;;;;;;16.05;46.34;99218.81;5250627;27;1253;-49
2024/04/18 01:00:40;;;;;;;;;;;;;;;15.82;45.89;99245.69;5304885;27;1316;-48
2024/04/18 01:03:25;;;;;;;;;;;;;;;15.77;45.59;99232.88;5283557;27;1475;-49
2024/04/18 01:06:03;;;;;;;;;;;;;;;16.70;46.24;99232.97;5283955;27;1125;-49
2024/04/18 01:08:49;;;;;;;;;;;;;;;16.18;47.08;99223.81;5312883;27;1420;-51
2024/04/18 01:11:28;;;;;;;;;;;;;;;15.99;46.31;99228.22;5290604;27;1186;-48
2024/04/18 01:13:53;;;;;;;;;;;;;;;15.81;45.85;99230.75;5307397;27;1834;-50
2024/04/18 01:16:20;;;;;;;;;;;;;;;15.76;45.54;99236.50;5305613;27;1201;-49
2024/04/18 01:18:46;;;;;;;;;;;;;;;15.73;44.93;99255.31;5294556;27;1220;-49
2024/04/18 01:21:15;;;;;;;;;;;;;;;16.56;45.70;99242.31;5305534;27;1264;-50
2024/04/18 01:23:40;;;;;;;;;;;;;;;15.94;46.31;99219.81;5295195;27;1121;-51
2024/04/18 01:26:06;;;;;;;;;;;;;;;15.86;45.65;99243.59;5317395;27;1287;-48
2024/04/18 01:28:31;;;;;;;;;;;;;;;15.86;44.88;99259.50;5283977;27;1228;-48
2024/04/18 01:31:00;;;;;;;;;;;;;;;16.11;46.15;99247.44;5284901;27;1080;-46
2024/04/18 01:33:26;;;;;;;;;;;;;;;16.12;46.28;99230.53;5317135;27;1860;-51
2024/04/18 01:35:51;;;;;;;;;;;;;;;15.86;46.08;99214.41;5294891;27;1176;-48
2024/04/18 01:38:20;;;;;;;;;;;;;;;15.69;45.51;99229.25;5293271;27;1184;-50
2024/04/18 01:40:45;;;;;;;;;;;;;;;16.38;46.32;99229.00;5317534;27;1294;-47
2024/04/18 01:43:29;;;;;;;;;;;;;;;16.14;46.31;99222.41;5301421;27;974;-50
2024/04/18 01:46:17;;;;;;;;;;;;;;;15.78;46.35;99196.59;5317106;27;1294;-47
2024/04/18 01:48:58;;;;;;;;;;;;;;;15.69;45.57;99195.63;5294262;27;1145;-46
2024/04/18 01:51:44;;;;;;;;;;;;;;;15.62;45.34;99187.41;5317311;27;1441;-49
2024/04/18 01:54:28;;;;;;;;;;;;;;;16.48;46.10;99211.19;5298629;27;1270;-49
2024/04/18 01:56:54;;;;;;;;;;;;;;;16.06;46.46;99209.91;5317225;27;1267;-48
2024/04/18 01:59:22;;;;;;;;;;;;;;;16.00;46.76;99237.84;5285028;27;1259;-48
2024/04/18 02:01:48;;;;;;;;;;;;;;;16.95;46.64;99248.34;5304184;27;1252;-49
2024/04/18 02:04:13;;;;;;;;;;;;;;;16.18;47.29;99258.31;5264196;27;1178;-48
2024/04/18 02:06:39;;;;;;;;;;;;;;;16.04;46.42;99246.34;5301116;27;1232;-49
2024/04/18 02:09:22;;;;;;;;;;;;;;;15.90;45.87;99250.25;5296652;27;1327;-46
2024/04/18 02:11:48;;;;;;;;;;;;;;;15.73;45.59;99254.50;5315700;27;1109;-48
2024/04/18 02:14:34;;;;;;;;;;;;;;;15.89;46.00;99225.56;5316601;27;1418;-49
2024/04/18 02:16:59;;;;;;;;;;;;;;;16.42;46.21;99201.19;5287061;27;1328;-49
2024/04/18 02:19:25;;;;;;;;;;;;;;;16.05;46.16;99199.44;5291778;27;968;-47
2024/04/18 02:21:56;;;;;;;;;;;;;;;15.84;46.02;99197.81;5283330;27;1201;-48
2024/04/18 02:24:31;;;;;;;;;;;;;;;16.12;46.50;99187.25;5304663;27;1280;-46
2024/04/18 02:26:57;;;;;;;;;;;;;;;16.35;46.56;99192.16;5293809;27;1195;-49
2024/04/18 02:29:23;;;;;;;;;;;;;;;15.98;46.58;99204.47;5316436;27;1156;-45
2024/04/18 02:31:48;;;;;;;;;;;;;;;16.45;47.12;99246.00;5301425;27;1211;-47
2024/04/18 02:34:29;;;;;;;;;;;;;;;16.28;46.66;99256.41;5305736;27;1375;-47
2024/04/18 02:36:54;;;;;;;;;;;;;;;15.96;46.39;99230.28;5296729;27;1287;-49
2024/04/18 02:39:20;;;;;;;;;;;;;;;15.85;45.77;99204.81;5293372;27;1132;-46
2024/04/18 02:41:45;;;;;;;;;;;;;;;15.84;45.11;99192.50;5303857;27;1272;-48
2024/04/18 02:44:46;;;;;;;;;;;;;;;16.50;46.33;99195.94;5314435;27;1537;-46
2024/04/18 02:47:11;;;;;;;;;;;;;;;16.46;47.35;99213.19;5295891;27;1184;-48
2024/04/18 02:49:57;;;;;;;;;;;;;;;15.99;47.10;99212.31;5296744;27;1300;-46
2024/04/18 02:52:23;;;;;;;;;;;;;;;15.89;46.13;99212.31;5294151;27;1835;-48
2024/04/18 02:54:48;;;;;;;;;;;;;;;16.45;46.82;99224.75;5303845;27;1141;-46
2024/04/18 02:57:14;;;;;;;;;;;;;;;16.46;47.05;99212.34;5307272;27;1296;-50
2024/04/18 02:59:39;;;;;;;;;;;;;;;16.02;46.63;99193.44;5316343;27;1121;-50
2024/04/18 03:02:20;;;;;;;;;;;;;;;15.94;45.94;99188.00;5286847;27;1276;-48
2024/04/18 03:04:46;;;;;;;;;;;;;;;15.86;45.18;99201.16;5282241;27;1292;-49
2024/04/18 03:07:11;;;;;;;;;;;;;;;15.77;44.82;99206.34;5300318;27;1216;-51
2024/04/18 03:09:45;;;;;;;;;;;;;;;15.67;44.66;99201.09;5296949;27;1137;-47
2024/04/18 03:12:24;;;;;;;;;;;;;;;15.71;44.93;99191.03;5304472;27;1833;-48
2024/04/18 03:14:49;;;;;;;;;;;;;;;16.90;45.79;99193.00;5304166;27;1261;-47
2024/04/18 03:17:35;;;;;;;;;;;;;;;16.03;46.38;99178.38;5282041;27;1762;-48
2024/04/18 03:20:00;;;;;;;;;;;;;;;15.79;46.12;99200.91;5285379;27;1178;-50
2024/04/18 03:22:26;;;;;;;;;;;;;;;16.67;46.83;99237.75;5271157;27;1299;-49
2024/04/18 03:24:58;;;;;;;;;;;;;;;16.01;46.75;99255.44;5280375;27;1126;-47
2024/04/18 03:27:27;;;;;;;;;;;;;;;15.93;45.96;99233.22;5299250;27;1371;-46
2024/04/18 03:29:53;;;;;;;;;;;;;;;15.76;46.16;99222.41;5315333;27;1314;-46
2024/04/18 03:32:35;;;;;;;;;;;;;;;16.26;46.51;99244.28;5294001;27;1845;-45
2024/04/18 03:35:01;;;;;;;;;;;;;;;15.92;46.24;99258.91;5275396;27;1434;-45
2024/04/18 03:37:26;;;;;;;;;;;;;;;17.31;46.09;99271.44;5315669;27;1133;-49
2024/04/18 03:39:52;;;;;;;;;;;;;;;16.24;47.21;99257.72;5293039;27;1319;-44
2024/04/18 03:42:17;;;;;;;;;;;;;;;16.00;46.92;99244.94;5295581;27;1370;-51
2024/04/18 03:44:52;;;;;;;;;;;;;;;15.93;45.97;99250.00;5293241;27;1217;-53
2024/04/18 03:47:18;;;;;;;;;;;;;;;15.82;45.42;99234.22;5309007;27;2826;-51
2024/04/18 03:50:02;;;;;;;;;;;;;;;15.66;45.18;99249.75;5299554;27;1485;-48
2024/04/18 03:52:37;;;;;;;;;;;;;;;15.58;44.92;99246.16;5287637;27;1830;-51
2024/04/18 03:55:21;;;;;;;;;;;;;;;16.98;46.32;99261.31;5301994;27;1259;-44
2024/04/18 03:57:50;;;;;;;;;;;;;;;16.22;47.21;99264.13;5296212;27;1212;-43
2024/04/18 04:00:35;;;;;;;;;;;;;;;15.91;46.58;99267.84;5290271;27;1536;-43
2024/04/18 04:03:01;;;;;;;;;;;;;;;15.81;46.03;99270.53;5314133;27;1200;-44
2024/04/18 04:05:27;;;;;;;;;;;;;;;16.88;44.86;99275.50;5314174;27;1129;-44
2024/04/18 04:07:52;;;;;;;;;;;;;;;17.28;43.81;99277.06;5265119;27;982;-39
2024/04/18 04:10:37;;;;;;;;;;;;;;;16.94;44.79;99258.13;5292692;27;1201;-42
2024/04/18 04:13:02;;;;;;;;;;;;;;;16.77;45.38;99241.19;5291181;27;1838;-45
2024/04/18 04:15:49;;;;;;;;;;;;;;;16.66;45.74;99234.28;5296682;27;1747;-42
2024/04/18 04:18:33;;;;;;;;;;;;;;;16.50;46.06;99233.13;5299139;27;2984;-44
2024/04/18 04:21:17;;;;;;;;;;;;;;;16.39;46.75;99225.38;5303339;27;1257;-41
2024/04/18 04:23:43;;;;;;;;;;;;;;;16.24;47.22;99217.06;5293968;27;1257;-44
2024/04/18 04:26:09;;;;;;;;;;;;;;;16.20;47.22;99210.41;5289635;27;1197;-44
2024/04/18 04:28:34;;;;;;;;;;;;;;;16.14;47.42;99187.94;5311460;27;1341;-45
2024/04/18 04:31:00;;;;;;;;;;;;;;;15.99;47.93;99187.59;5292773;27;1267;-40
2024/04/18 04:33:27;;;;;;;;;;;;;;;15.99;48.14;99183.13;5290536;27;1839;-45
2024/04/18 04:35:52;;;;;;;;;;;;;;;15.94;48.25;99189.81;5295423;27;1488;-43
2024/04/18 04:38:18;;;;;;;;;;;;;;;15.82;48.36;99184.69;5291963;27;1137;-42
2024/04/18 04:40:43;;;;;;;;;;;;;;;17.21;45.96;99181.16;5283581;27;1263;-41
2024/04/18 04:43:09;;;;;;;;;;;;;;;16.83;46.66;99195.44;5310766;27;1249;-42
2024/04/18 04:45:34;;;;;;;;;;;;;;;16.44;47.40;99212.47;5295516;27;1211;-41
2024/04/18 04:48:03;;;;;;;;;;;;;;;16.19;47.99;99214.00;5294024;27;2859;-41
2024/04/18 04:50:29;;;;;;;;;;;;;;;16.06;48.46;99246.19;5317104;27;1116;-45
2024/04/18 04:53:12;;;;;;;;;;;;;;;15.99;48.60;99249.44;5302524;27;1823;-45
2024/04/18 04:55:57;;;;;;;;;;;;;;;15.98;49.10;99221.22;5297557;27;1219;-41
2024/04/18 04:58:22;;;;;;;;;;;;;;;17.47;45.83;99213.06;5297788;27;1275;-41
2024/04/18 05:00:48;;;;;;;;;;;;;;;16.94;46.98;99214.78;5290700;27;1296;-43
2024/04/18 05:03:33;;;;;;;;;;;;;;;16.45;48.12;99184.13;5316987;27;1816;-42
2024/04/18 05:06:19;;;;;;;;;;;;;;;16.24;48.57;99222.38;5283328;27;1837;-43
2024/04/18 05:09:05;;;;;;;;;;;;;;;16.12;48.89;99262.38;5296439;27;1937;-41
2024/04/18 05:11:30;;;;;;;;;;;;;;;16.01;49.46;99257.25;5294560;27;1264;-44
2024/04/18 05:13:56;;;;;;;;;;;;;;;17.50;46.20;99252.63;5317633;27;1830;-42
2024/04/18 05:16:21;;;;;;;;;;;;;;;17.11;47.18;99245.88;5317043;27;1227;-42
2024/04/18 05:19:07;;;;;;;;;;;;;;;16.57;47.98;99265.22;5316431;27;1471;-45
2024/04/18 05:21:32;;;;;;;;;;;;;;;16.35;48.75;99267.28;5312048;27;1296;-44
2024/04/18 05:24:16;;;;;;;;;;;;;;;16.12;49.20;99267.66;5295929;27;1292;-43
2024/04/18 05:26:43;;;;;;;;;;;;;;;16.09;49.40;99260.00;5305676;27;1323;-41
2024/04/18 05:31:52;;;;;;;;;;;;;;;17.77;45.75;99273.91;5288048;27;1173;-40
2024/04/18 05:34:18;;;;;;;;;;;;;;;16.97;47.90;99267.59;5286488;27;1831;-44
2024/04/18 05:36:44;;;;;;;;;;;;;;;16.74;48.46;99268.88;5302415;27;1136;-41
2024/04/18 05:39:10;;;;;;;;;;;;;;;16.35;49.14;99267.28;5305199;27;1216;-45
2024/04/18 05:41:37;;;;;;;;;;;;;;;16.17;49.26;99283.16;5284257;27;1267;-39
2024/04/18 05:44:23;;;;;;;;;;;;;;;17.67;46.82;99286.47;5294126;27;1490;-46
2024/04/18 05:46:49;;;;;;;;;;;;;;;17.08;47.56;99299.25;5281848;27;1137;-46
2024/04/18 05:49:15;;;;;;;;;;;;;;;16.68;48.68;99314.63;5310430;27;1265;-46
2024/04/18 05:51:41;;;;;;;;;;;;;;;16.47;48.88;99310.41;5301474;27;1117;-41
2024/04/18 05:54:25;;;;;;;;;;;;;;;16.30;49.26;99308.53;5306437;27;1118;-39
2024/04/18 05:57:04;;;;;;;;;;;;;;;16.42;49.47;99315.31;5316225;27;1076;-45
2024/04/18 05:59:48;;;;;;;;;;;;;;;17.63;46.65;99320.53;5317518;27;1200;-40
2024/04/18 06:02:14;;;;;;;;;;;;;;;16.84;48.25;99326.41;5294513;27;1164;-44
2024/04/18 06:04:41;;;;;;;;;;;;;;;16.55;49.32;99314.16;5315493;27;1248;-43
2024/04/18 06:07:29;;;;;;;;;;;;;;;16.27;49.67;99322.91;5315969;27;1544;-44
2024/04/18 06:09:55;;;;;;;;;;;;;;;16.16;49.93;99303.53;5295299;27;1169;-44
2024/04/18 06:12:20;;;;;;;;;;;;;;;17.34;47.59;99324.28;5292729;27;1833;-45
2024/04/18 06:14:47;;;;;;;;;;;;;;;17.21;47.74;99332.63;5316523;27;1279;-44
2024/04/18 06:17:12;;;;;;;;;;;;;;;16.65;48.97;99333.50;5293862;27;1264;-44
2024/04/18 06:19:50;;;;;;;;;;;;;;;16.34;49.66;99331.13;5292503;27;1274;-43
2024/04/18 06:22:27;;;;;;;;;;;;;;;16.19;49.98;99333.41;5282970;27;1212;-44
2024/04/18 06:25:13;;;;;;;;;;;;;;;16.06;50.08;99339.03;5300652;27;1553;-45
2024/04/18 06:27:39;;;;;;;;;;;;;;;16.04;50.22;99344.47;5303085;27;1295;-44
2024/04/18 06:30:04;;;;;;;;;;;;;;;17.41;48.04;99340.44;5284702;27;1220;-44
2024/04/18 06:32:30;;;;;;;;;;;;;;;17.11;48.26;99356.63;5290673;27;1830;-46
2024/04/18 06:34:55;;;;;;;;;;;;;;;16.60;49.49;99363.16;5282561;27;1295;-45
2024/04/18 06:37:21;;;;;;;;;;;;;;;16.32;50.05;99364.91;5282685;27;1190;-42
2024/04/18 06:39:46;;;;;;;;;;;;;;;16.22;50.04;99371.09;5312793;27;1222;-43
2024/04/18 06:42:12;;;;;;;;;;;;;;;16.04;50.21;99378.97;5316424;27;1256;-43
2024/04/18 06:44:38;;;;;;;;;;;;;;;17.46;48.10;99380.72;5298798;27;1156;-45
2024/04/18 06:47:03;;;;;;;;;;;;;;;17.12;48.36;99367.09;5316966;27;1276;-44
2024/04/18 06:49:29;;;;;;;;;;;;;;;16.55;49.70;99373.38;5293558;27;1232;-45
2024/04/18 06:51:54;;;;;;;;;;;;;;;16.39;50.05;99374.84;5316276;27;1223;-40
2024/04/18 06:54:20;;;;;;;;;;;;;;;16.25;50.21;99373.47;5316084;27;1822;-45
2024/04/18 06:56:46;;;;;;;;;;;;;;;16.33;50.50;99379.88;5316026;27;1264;-43
2024/04/18 06:59:12;;;;;;;;;;;;;;;17.77;46.87;99377.66;5307768;27;1197;-40
2024/04/18 07:01:40;;;;;;;;;;;;;;;17.01;48.62;99373.44;5282335;27;1165;-42
2024/04/18 07:04:06;;;;;;;;;;;;;;;16.61;49.63;99386.06;5304965;27;1157;-41
2024/04/18 07:06:31;;;;;;;;;;;;;;;16.33;50.42;99390.50;5282108;27;1513;-43
2024/04/18 07:09:03;;;;;;;;;;;;;;;16.17;50.34;99381.31;5290599;27;1193;-42
2024/04/18 07:11:40;;;;;;;;;;;;;;;16.13;50.33;99395.84;5293125;27;1172;-41
2024/04/18 07:14:06;;;;;;;;;;;;;;;16.45;50.42;99399.13;5316220;27;1848;-44
2024/04/18 07:16:32;;;;;;;;;;;;;;;17.57;47.69;99376.97;5292595;27;1125;-43
2024/04/18 07:19:17;;;;;;;;;;;;;;;16.75;49.61;99378.59;5281722;27;1699;-40
2024/04/18 07:21:54;;;;;;;;;;;;;;;16.44;50.02;99394.78;5290428;27;1312;-48
2024/04/18 07:24:22;;;;;;;;;;;;;;;16.24;50.56;99397.50;5316073;27;1179;-42
2024/04/18 07:26:47;;;;;;;;;;;;;;;16.07;50.77;99402.56;5315647;27;1109;-43
2024/04/18 07:29:13;;;;;;;;;;;;;;;16.76;50.33;99407.69;5295970;27;1125;-45
2024/04/18 07:31:39;;;;;;;;;;;;;;;17.41;48.37;99414.88;5311989;27;1338;-43
2024/04/18 07:34:10;;;;;;;;;;;;;;;16.71;49.79;99425.03;5315277;27;1823;-45
2024/04/18 07:36:36;;;;;;;;;;;;;;;16.44;50.19;99423.97;5283575;27;1160;-48
2024/04/18 07:39:05;;;;;;;;;;;;;;;16.28;50.69;99414.81;5281495;27;1242;-43
2024/04/18 07:41:30;;;;;;;;;;;;;;;16.43;50.61;99428.47;5281669;27;1114;-40
2024/04/18 07:43:56;;;;;;;;;;;;;;;17.74;47.25;99424.03;5281777;27;1367;-43
2024/04/18 07:46:26;;;;;;;;;;;;;;;17.02;48.90;99422.91;5281516;27;1272;-46
2024/04/18 07:48:51;;;;;;;;;;;;;;;16.58;50.07;99431.47;5282047;27;1177;-46
2024/04/18 07:51:17;;;;;;;;;;;;;;;16.39;50.42;99421.75;5314708;27;1276;-48
2024/04/18 07:53:42;;;;;;;;;;;;;;;16.21;50.86;99416.34;5294056;27;1830;-42
2024/04/18 07:56:08;;;;;;;;;;;;;;;16.28;51.02;99425.44;5281738;27;1161;-45
2024/04/18 07:58:34;;;;;;;;;;;;;;;17.65;47.79;99427.56;5281184;27;1108;-43
2024/04/18 08:00:59;;;;;;;;;;;;;;;16.94;49.08;99427.28;5291252;27;1186;-41
2024/04/18 08:03:25;;;;;;;;;;;;;;;16.54;50.19;99424.78;5300222;27;1508;-40
2024/04/18 08:05:50;;;;;;;;;;;;;;;16.35;50.57;99433.66;5291739;27;1288;-43
2024/04/18 08:08:16;;;;;;;;;;;;;;;16.24;50.59;99435.50;5315589;27;1378;-40
2024/04/18 08:10:42;;;;;;;;;;;;;;;16.25;50.93;99441.63;5313704;27;1240;-45
2024/04/18 08:13:08;;;;;;;;;;;;;;;17.67;47.83;99438.06;5315561;27;1862;-44
2024/04/18 08:15:39;;;;;;;;;;;;;;;17.00;49.53;99434.66;5281099;27;1228;-44
2024/04/18 08:18:05;;;;;;;;;;;;;;;16.53;50.18;99437.22;5304042;27;1181;-45
2024/04/18 08:20:31;;;;;;;;;;;;;;;16.40;50.56;99449.97;5314697;27;1236;-42
2024/04/18 08:22:57;;;;;;;;;;;;;;;16.18;50.82;99444.03;5261645;27;1188;-43
2024/04/18 08:25:23;;;;;;;;;;;;;;;16.12;51.06;99441.91;5293180;27;1354;-45
2024/04/18 08:27:49;;;;;;;;;;;;;;;17.12;49.51;99433.53;5314746;27;1109;-45
2024/04/18 08:30:15;;;;;;;;;;;;;;;17.42;48.41;99422.72;5303372;27;1260;-45
2024/04/18 08:32:40;;;;;;;;;;;;;;;16.75;50.03;99435.19;5280794;27;1857;-43
2024/04/18 08:35:06;;;;;;;;;;;;;;;16.46;50.76;99440.59;5315254;27;1241;-43
2024/04/18 08:37:31;;;;;;;;;;;;;;;16.28;50.85;99452.78;5314958;27;1173;-40
2024/04/18 08:39:57;;;;;;;;;;;;;;;16.22;50.96;99463.97;5314802;27;1447;-42
2024/04/18 08:42:25;;;;;;;;;;;;;;;16.06;51.07;99461.91;5314712;27;1280;-43
2024/04/18 08:44:55;;;;;;;;;;;;;;;17.38;49.44;99462.03;5311390;27;1370;-44
2024/04/18 08:47:25;;;;;;;;;;;;;;;17.24;49.06;99465.22;5281033;27;1145;-41
2024/04/18 08:49:50;;;;;;;;;;;;;;;16.66;50.41;99470.59;5287838;27;1193;-45
2024/04/18 08:52:16;;;;;;;;;;;;;;;16.43;50.81;99462.13;5250507;27;1830;-42
2024/04/18 08:54:41;;;;;;;;;;;;;;;16.26;51.12;99468.03;5250938;27;1250;-43
2024/04/18 08:57:07;;;;;;;;;;;;;;;16.18;51.13;99461.75;5299137;27;1419;-40
2024/04/18 08:59:32;;;;;;;;;;;;;;;16.02;51.37;99469.31;5250775;27;1170;-42
2024/04/18 09:01:59;;;;;;;;;;;;;;;16.01;51.56;99464.97;5273084;27;1217;-47
2024/04/18 09:04:24;;;;;;;;;;;;;;;17.49;49.17;99460.16;5292834;27;1158;-43
2024/04/18 09:06:50;;;;;;;;;;;;;;;17.15;49.51;99463.44;5312812;27;1193;-46
2024/04/18 09:09:18;;;;;;;;;;;;;;;16.60;50.90;99471.19;5280494;27;1596;-45
2024/04/18 09:11:49;;;;;;;;;;;;;;;16.36;51.19;99459.22;5281907;27;1236;-47
2024/04/18 09:14:15;;;;;;;;;;;;;;;16.25;51.42;99465.50;5314001;27;1838;-44
2024/04/18 09:16:40;;;;;;;;;;;;;;;16.08;51.62;99467.88;5314321;27;1176;-46
2024/04/18 09:19:06;;;;;;;;;;;;;;;16.30;51.78;99465.91;5314271;27;1133;-44
2024/04/18 09:21:33;;;;;;;;;;;;;;;17.67;48.69;99462.00;5295729;27;1188;-45
2024/04/18 09:23:58;;;;;;;;;;;;;;;16.91;50.63;99462.13;5302372;27;1279;-45
2024/04/18 09:26:27;;;;;;;;;;;;;;;16.64;51.13;99459.28;5305944;27;1154;-46
2024/04/18 09:28:52;;;;;;;;;;;;;;;16.41;51.36;99464.94;5298377;27;1125;-43
2024/04/18 09:31:19;;;;;;;;;;;;;;;16.31;51.63;99464.09;5291064;27;1149;-44
2024/04/18 09:33:48;;;;;;;;;;;;;;;16.29;51.59;99469.56;5292962;27;1877;-44
2024/04/18 09:36:15;;;;;;;;;;;;;;;16.09;51.71;99466.06;5317434;27;1347;-48
2024/04/18 09:38:41;;;;;;;;;;;;;;;15.99;51.74;99474.88;5317272;27;1169;-48
2024/04/18 09:41:10;;;;;;;;;;;;;;;17.21;50.89;99486.78;5261155;27;1291;-43
2024/04/18 09:43:36;;;;;;;;;;;;;;;17.25;50.29;99483.66;5283208;27;1381;-43
2024/04/18 09:46:05;;;;;;;;;;;;;;;16.63;51.51;99500.91;5283388;27;1142;-43
2024/04/18 09:48:30;;;;;;;;;;;;;;;16.49;51.65;99491.59;5283261;27;1283;-40
2024/04/18 09:50:56;;;;;;;;;;;;;;;16.25;52.08;99490.22;5288864;27;1209;-44
2024/04/18 09:53:21;;;;;;;;;;;;;;;16.19;52.00;99493.44;5316551;27;1870;-47
2024/04/18 09:55:47;;;;;;;;;;;;;;;16.62;52.03;99485.97;5288767;27;1172;-46
2024/04/18 09:58:13;;;;;;;;;;;;;;;17.63;49.73;99486.22;5253407;27;1292;-46
2024/04/18 10:00:38;;;;;;;;;;;;;;;16.88;51.33;99497.78;5280638;27;1142;-44
2024/04/18 10:03:06;;;;;;;;;;;;;;;16.64;51.56;99496.44;5317210;27;1240;-47
2024/04/18 10:05:32;;;;;;;;;;;;;;;16.39;52.07;99488.97;5311528;27;1145;-45
2024/04/18 10:07:57;;;;;;;;;;;;;;;16.24;52.06;99487.72;5253616;27;1265;-48
2024/04/18 10:10:23;;;;;;;;;;;;;;;16.16;51.91;99485.78;5288258;27;1161;-44
2024/04/18 10:12:48;;;;;;;;;;;;;;;16.09;52.58;99479.34;5300303;27;1838;-48
2024/04/18 10:15:20;;;;;;;;;;;;;;;17.46;50.30;99482.59;5253081;27;1267;-44
2024/04/18 10:17:46;;;;;;;;;;;;;;;17.23;50.85;99485.63;5300829;27;1162;-44
2024/04/18 10:20:12;;;;;;;;;;;;;;;16.70;51.80;99493.22;5287274;27;1208;-47
2024/04/18 10:22:38;;;;;;;;;;;;;;;16.44;51.88;99490.34;5300733;27;1312;-48
2024/04/18 10:25:03;;;;;;;;;;;;;;;16.37;51.93;99493.56;5309427;27;1215;-47
2024/04/18 10:27:29;;;;;;;;;;;;;;;16.25;51.94;99503.50;5301455;27;1279;-48
2024/04/18 10:29:58;;;;;;;;;;;;;;;16.11;52.28;99509.22;5293444;27;1254;-42
2024/04/18 10:32:27;;;;;;;;;;;;;;;16.41;52.50;99515.38;5297090;27;1850;-45
2024/04/18 10:34:53;;;;;;;;;;;;;;;17.73;49.92;99496.81;5290434;27;1185;-44
2024/04/18 10:37:22;;;;;;;;;;;;;;;17.04;51.14;99509.59;5267115;27;1181;-45
2024/04/18 10:39:48;;;;;;;;;;;;;;;16.53;52.00;99516.06;5313916;27;1229;-48
2024/04/18 10:42:13;;;;;;;;;;;;;;;16.47;51.81;99519.25;5297552;27;1256;-44
2024/04/18 10:44:39;;;;;;;;;;;;;;;16.28;52.05;99527.09;5305313;27;1173;-46
2024/04/18 10:47:05;;;;;;;;;;;;;;;16.17;52.03;99521.94;5301473;27;1067;-47
2024/04/18 10:49:30;;;;;;;;;;;;;;;16.02;52.15;99522.34;5308240;27;1279;-46
2024/04/18 10:51:58;;;;;;;;;;;;;;;16.89;51.78;99526.88;5282622;27;1276;-48
2024/04/18 10:54:24;;;;;;;;;;;;;;;17.35;50.44;99528.78;5312973;27;1925;-46
2024/04/18 10:56:50;;;;;;;;;;;;;;;16.69;51.68;99523.41;5296603;27;1256;-50
2024/04/18 10:59:15;;;;;;;;;;;;;;;16.46;51.91;99521.09;5291177;27;1320;-49
2024/04/18 11:01:42;;;;;;;;;;;;;;;16.25;52.03;99519.41;5296001;27;1191;-45
2024/04/18 11:04:11;;;;;;;;;;;;;;;16.20;51.76;99523.47;5314179;27;1260;-49
2024/04/18 11:06:36;;;;;;;;;;;;;;;16.06;52.14;99530.03;5316231;27;1243;-47
2024/04/18 11:09:02;;;;;;;;;;;;;;;17.14;51.10;99529.03;5316263;27;1274;-45
2024/04/18 11:11:31;;;;;;;;;;;;;;;17.44;49.96;99535.06;5294146;27;1187;-49
2024/04/18 11:13:57;;;;;;;;;;;;;;;16.73;51.51;99526.63;5286784;27;1829;-46
2024/04/18 11:16:26;;;;;;;;;;;;;;;16.46;51.84;99534.34;5315808;27;1271;-44
2024/04/18 11:18:54;;;;;;;;;;;;;;;16.31;51.82;99546.38;5282472;27;1449;-45
2024/04/18 11:21:20;;;;;;;;;;;;;;;16.19;52.00;99541.22;5282959;27;1248;-49
2024/04/18 11:23:50;;;;;;;;;;;;;;;16.47;52.32;99538.69;5282173;27;1107;-47
2024/04/18 11:26:17;;;;;;;;;;;;;;;17.66;49.88;99542.78;5281905;27;1304;-50
2024/04/18 11:28:42;;;;;;;;;;;;;;;16.83;51.09;99546.00;5294599;27;1181;-46
2024/04/18 11:31:08;;;;;;;;;;;;;;;16.54;51.58;99554.88;5292762;27;1302;-47
2024/04/18 11:33:34;;;;;;;;;;;;;;;16.37;51.82;99554.63;5303643;27;1826;-46
2024/04/18 11:35:59;;;;;;;;;;;;;;;16.26;51.55;99552.94;5304386;27;1092;-49
2024/04/18 11:38:25;;;;;;;;;;;;;;;16.18;51.82;99560.78;5292477;27;1170;-49
2024/04/18 11:40:50;;;;;;;;;;;;;;;16.06;51.87;99553.91;5292779;27;1188;-48
2024/04/18 11:43:16;;;;;;;;;;;;;;;17.20;50.89;99563.00;5281646;27;1186;-48
2024/04/18 11:45:41;;;;;;;;;;;;;;;17.09;50.84;99566.69;5303096;27;1177;-47
2024/04/18 11:48:07;;;;;;;;;;;;;;;16.64;51.76;99557.53;5299558;27;1052;-49
2024/04/18 11:50:33;;;;;;;;;;;;;;;16.42;51.65;99567.47;5281648;27;1170;-50
2024/04/18 11:52:58;;;;;;;;;;;;;;;16.26;51.82;99557.41;5315026;27;1837;-47
2024/04/18 11:55:26;;;;;;;;;;;;;;;16.13;51.93;99563.81;5315098;27;1375;-48
2024/04/18 11:57:52;;;;;;;;;;;;;;;16.25;52.27;99568.97;5293356;27;1298;-51
2024/04/18 12:00:33;;;;;;;;;;;;;;;17.68;49.53;99570.06;5292783;27;1116;-51
2024/04/18 12:03:09;;;;;;;;;;;;;;;16.85;50.98;99567.97;5297861;27;1306;-49
2024/04/18 12:05:51;;;;;;;;;;;;;;;16.49;51.57;99579.19;5304560;27;1406;-51
2024/04/18 12:08:16;;;;;;;;;;;;;;;16.29;51.95;99573.06;5281135;27;1247;-51
2024/04/18 12:10:42;;;;;;;;;;;;;;;16.27;51.96;99581.16;5313589;27;1206;-49
2024/04/18 12:13:07;;;;;;;;;;;;;;;17.69;49.25;99585.03;5315680;27;1869;-51
2024/04/18 12:15:50;;;;;;;;;;;;;;;17.10;50.47;99576.31;5315623;27;1173;-50
2024/04/18 12:18:27;;;;;;;;;;;;;;;16.62;51.43;99562.13;5309083;27;1347;-49
2024/04/18 12:20:53;;;;;;;;;;;;;;;16.40;51.44;99570.25;5281347;27;1407;-49
2024/04/18 12:23:33;;;;;;;;;;;;;;;16.26;51.56;99571.53;5303365;27;1360;-47
2024/04/18 12:26:05;;;;;;;;;;;;;;;16.11;51.81;99579.06;5252775;27;1305;-48
2024/04/18 12:28:42;;;;;;;;;;;;;;;16.07;51.69;99577.63;5280888;27;1097;-48
2024/04/18 12:31:08;;;;;;;;;;;;;;;17.22;50.53;99573.47;5303447;27;1173;-47
2024/04/18 12:33:47;;;;;;;;;;;;;;;17.12;50.20;99585.00;5280992;27;1830;-46
2024/04/18 12:36:13;;;;;;;;;;;;;;;16.63;51.40;99583.22;5308324;27;1129;-45
2024/04/18 12:38:39;;;;;;;;;;;;;;;16.37;51.61;99581.16;5312668;27;1168;-49
2024/04/18 12:41:05;;;;;;;;;;;;;;;16.21;51.87;99581.72;5311424;27;1197;-50
2024/04/18 12:43:30;;;;;;;;;;;;;;;16.09;51.87;99588.97;5280947;27;1241;-45
2024/04/18 12:45:57;;;;;;;;;;;;;;;17.43;50.22;99594.53;5254536;27;1308;-50
2024/04/18 12:48:41;;;;;;;;;;;;;;;17.01;50.55;99595.75;5294943;27;986;-50
2024/04/18 12:51:07;;;;;;;;;;;;;;;16.58;51.51;99592.59;5302879;27;1291;-48
2024/04/18 12:53:42;;;;;;;;;;;;;;;16.36;51.68;99606.03;5280638;27;1849;-48
2024/04/18 12:56:07;;;;;;;;;;;;;;;16.22;51.74;99604.59;5291050;27;1252;-46
2024/04/18 12:58:33;;;;;;;;;;;;;;;16.14;51.82;99600.00;5317685;27;1227;-49
2024/04/18 13:01:08;;;;;;;;;;;;;;;16.64;51.76;99595.53;5283671;27;1138;-45
2024/04/18 13:03:36;;;;;;;;;;;;;;;17.57;49.46;99603.84;5283828;27;1268;-49
2024/04/18 13:06:24;;;;;;;;;;;;;;;16.83;51.17;99614.25;5300428;27;1422;-51
2024/04/18 13:08:50;;;;;;;;;;;;;;;16.48;51.63;99608.53;5317454;27;1213;-51
2024/04/18 13:11:35;;;;;;;;;;;;;;;16.32;51.62;99614.38;5295375;27;1541;-49